Time;durP1;ratioP1;P1;durP2;ratioP2;P2;SDS_P1;SDS_P2;PMS_P1;PMS_P2;Temp;Humidity;BMP_temperature;BMP_pressure;BME280_temperature;BME280_humidity;BME280_pressure;Samples;Min_cycle;Max_cycle;Signal;HPM_P1;HPM_P2
2022/08/23 00:01:33;;;;;;;0.50;0.40;;;16.40;99.90;;;;;;4904960;29;20450;-84
2022/08/23 00:04:06;;;;;;;0.30;0.30;;;15.50;99.90;;;;;;4913316;29;20440;-84
2022/08/23 00:06:32;;;;;;;0.30;0.20;;;16.30;99.90;;;;;;4907518;29;20040;-85
2022/08/23 00:09:00;;;;;;;0.20;0.20;;;16.20;99.90;;;;;;4908884;29;20051;-84
2022/08/23 00:11:38;;;;;;;0.73;0.43;;;16.20;99.90;;;;;;4909106;29;20048;-84
2022/08/23 00:14:08;;;;;;;0.22;0.22;;;16.20;99.90;;;;;;4906367;29;20052;-84
2022/08/23 00:16:34;;;;;;;0.22;0.22;;;15.30;99.90;;;;;;4904758;29;20056;-84
2022/08/23 00:19:05;;;;;;;0.20;0.20;;;16.20;99.90;;;;;;4895598;29;20176;-85
2022/08/23 00:21:31;;;;;;;0.20;0.20;;;16.10;99.90;;;;;;4890979;29;20515;-85
2022/08/23 00:23:57;;;;;;;0.20;0.20;;;16.10;99.90;;;;;;4901801;29;20048;-85
2022/08/23 00:26:25;;;;;;;0.63;0.30;;;16.00;99.90;;;;;;4902643;29;20491;-85
2022/08/23 00:28:51;;;;;;;0.38;0.30;;;16.00;99.90;;;;;;4902529;29;20050;-85
2022/08/23 00:31:20;;;;;;;0.20;0.20;;;16.00;99.90;;;;;;4908087;29;20044;-85
2022/08/23 00:33:46;;;;;;;0.10;0.10;;;16.00;99.90;;;;;;4888527;29;20076;-88
2022/08/23 00:36:12;;;;;;;0.28;0.28;;;16.00;99.90;;;;;;4908555;29;20087;-85
2022/08/23 00:38:38;;;;;;;0.30;0.30;;;16.00;99.90;;;;;;4890464;29;20067;-84
2022/08/23 00:41:04;;;;;;;0.47;0.20;;;15.90;99.90;;;;;;4910552;29;20044;-84
2022/08/23 00:49:25;;;;;;;0.20;0.20;;;15.90;99.90;;;;;;4910606;29;20044;-85
2022/08/23 00:52:13;;;;;;;0.20;0.20;;;15.80;99.90;;;;;;4892517;29;20125;-85
2022/08/23 00:54:40;;;;;;;0.30;0.20;;;15.80;99.90;;;;;;4886668;29;20083;-84
2022/08/23 00:57:11;;;;;;;0.45;0.35;;;15.80;99.90;;;;;;4913805;29;20080;-85
2022/08/23 00:59:38;;;;;;;0.13;0.13;;;15.70;99.90;;;;;;4888139;29;20087;-84
2022/08/23 01:02:04;;;;;;;;;;;15.70;99.90;;;;;;4922338;29;20537;-84
2022/08/23 01:04:35;;;;;;;0.00;0.00;;;15.60;99.90;;;;;;4892874;29;19922;-85
2022/08/23 01:07:03;;;;;;;0.60;0.35;;;15.60;99.90;;;;;;4907224;29;20464;-85
2022/08/23 01:09:29;;;;;;;0.20;0.20;;;15.60;99.90;;;;;;4909980;29;20126;-85
2022/08/23 01:12:15;;;;;;;0.10;0.10;;;15.50;99.90;;;;;;4888422;29;20131;-85
2022/08/23 01:14:53;;;;;;;0.30;0.30;;;15.50;99.90;;;;;;4894159;29;20451;-85
2022/08/23 01:17:37;;;;;;;0.77;0.22;;;15.50;99.90;;;;;;4891592;29;20482;-85
2022/08/23 01:20:09;;;;;;;0.20;0.10;;;15.40;99.90;;;;;;4889881;29;20048;-88
2022/08/23 01:22:56;;;;;;;0.52;0.40;;;15.40;99.90;;;;;;4906407;29;20052;-84
2022/08/23 01:25:23;;;;;;;0.13;0.13;;;15.40;99.90;;;;;;4906014;29;20189;-85
2022/08/23 01:27:50;;;;;;;0.10;0.10;;;15.30;99.90;;;;;;4892090;29;20135;-85
2022/08/23 01:30:22;;;;;;;0.40;0.15;;;15.30;99.90;;;;;;4902173;29;20044;-84
2022/08/23 01:32:54;;;;;;;0.25;0.17;;;15.30;99.90;;;;;;4896945;29;20075;-86
2022/08/23 01:35:24;;;;;;;0.55;0.40;;;15.30;99.90;;;;;;4926931;29;20052;-85
2022/08/23 01:37:50;;;;;;;0.50;0.20;;;15.20;99.90;;;;;;4891350;29;20056;-84
2022/08/23 01:40:16;;;;;;;;;;;15.20;99.90;;;;;;4904473;29;20537;-86
2022/08/23 01:42:42;;;;;;;0.17;0.17;;;15.10;99.90;;;;;;4881361;29;19923;-85
2022/08/23 01:45:12;;;;;;;0.13;0.13;;;15.10;99.90;;;;;;4891637;29;20085;-84
2022/08/23 01:47:45;;;;;;;0.10;0.10;;;15.10;99.90;;;;;;4891147;29;20133;-84
2022/08/23 01:50:12;;;;;;;0.52;0.20;;;15.10;99.90;;;;;;4888694;29;20059;-84
2022/08/23 01:52:39;;;;;;;0.10;0.10;;;15.10;99.90;;;;;;4899472;29;20040;-87
2022/08/23 01:55:08;;;;;;;1.27;0.30;;;15.10;99.90;;;;;;4910584;29;20052;-90
2022/08/23 01:57:34;;;;;;;0.60;0.20;;;15.00;99.90;;;;;;4892358;29;20111;-85
2022/08/23 02:00:00;;;;;;;0.15;0.13;;;15.00;99.90;;;;;;4888205;29;20092;-85
2022/08/23 02:02:29;;;;;;;0.90;0.20;;;15.00;99.90;;;;;;4892721;29;20598;-85
2022/08/23 02:04:54;;;;;;;0.30;0.20;;;15.00;99.90;;;;;;4892220;29;20126;-85
2022/08/23 02:07:25;;;;;;;0.20;0.20;;;15.00;99.90;;;;;;4908141;29;20075;-85
2022/08/23 02:09:54;;;;;;;0.30;0.30;;;14.90;99.90;;;;;;4893458;29;20307;-84
2022/08/23 02:12:19;;;;;;;1.00;0.20;;;14.90;99.90;;;;;;4912005;29;20040;-85
2022/08/23 02:14:45;;;;;;;0.27;0.27;;;14.90;99.90;;;;;;4905765;29;20050;-85
2022/08/23 02:17:11;;;;;;;0.20;0.20;;;14.90;99.90;;;;;;4894135;29;20103;-86
2022/08/23 02:19:37;;;;;;;0.30;0.30;;;14.80;99.90;;;;;;4894995;29;20050;-84
2022/08/23 02:22:04;;;;;;;;;;;14.80;99.90;;;;;;4907730;29;20048;-84
2022/08/23 02:24:30;;;;;;;0.25;0.20;;;14.70;99.90;;;;;;4895119;29;19919;-84
2022/08/23 02:26:59;;;;;;;0.30;0.20;;;14.70;99.90;;;;;;4900314;29;20051;-84
2022/08/23 02:29:28;;;;;;;0.32;0.32;;;14.70;99.90;;;;;;4906418;29;20044;-85
2022/08/23 02:31:57;;;;;;;0.05;0.05;;;14.70;99.90;;;;;;4905908;29;20056;-84
2022/08/23 02:34:26;;;;;;;0.17;0.17;;;14.70;99.90;;;;;;4913269;29;20119;-85
2022/08/23 02:36:53;;;;;;;0.22;0.22;;;14.60;99.90;;;;;;4887766;29;20052;-85
2022/08/23 02:39:19;;;;;;;0.57;0.20;;;14.70;99.90;;;;;;4904787;29;20044;-84
2022/08/23 02:41:45;;;;;;;0.85;0.43;;;14.60;99.90;;;;;;4891475;29;20107;-84
2022/08/23 02:44:11;;;;;;;0.20;0.10;;;14.60;99.90;;;;;;4887366;29;20051;-84
2022/08/23 02:46:41;;;;;;;0.20;0.10;;;14.50;99.90;;;;;;4904130;29;20062;-88
2022/08/23 02:49:08;;;;;;;0.30;0.20;;;14.50;99.90;;;;;;4891359;29;20048;-84
2022/08/23 02:51:41;;;;;;;0.25;0.20;;;14.40;99.90;;;;;;4893098;29;20063;-84
2022/08/23 02:54:07;;;;;;;0.10;0.10;;;14.50;99.90;;;;;;4902719;29;20050;-84
2022/08/23 02:56:33;;;;;;;0.10;0.10;;;14.40;99.90;;;;;;4903550;29;20047;-84
2022/08/23 02:58:59;;;;;;;0.20;0.20;;;14.40;99.90;;;;;;4887810;29;20845;-85
2022/08/23 03:01:28;;;;;;;0.73;0.20;;;14.40;99.90;;;;;;4907348;29;20126;-84
2022/08/23 03:03:55;;;;;;;0.13;0.10;;;14.30;99.90;;;;;;4913871;29;20036;-85
2022/08/23 03:06:22;;;;;;;0.40;0.28;;;14.30;99.90;;;;;;4911929;29;20032;-84
2022/08/23 03:08:47;;;;;;;0.32;0.32;;;14.30;99.90;;;;;;4903603;29;20486;-84
2022/08/23 03:11:22;;;;;;;0.13;0.10;;;14.50;99.90;;;;;;4885017;29;20063;-84
2022/08/23 03:13:49;;;;;;;0.13;0.10;;;14.70;99.90;;;;;;4913102;29;20546;-84
2022/08/23 03:16:16;;;;;;;0.20;0.20;;;14.20;99.90;;;;;;4890978;29;20068;-84
2022/08/23 03:18:42;;;;;;;0.13;0.13;;;14.20;99.90;;;;;;4888412;29;20052;-85
2022/08/23 03:21:09;;;;;;;0.23;0.23;;;14.20;99.90;;;;;;4889929;29;20501;-85
2022/08/23 03:23:35;;;;;;;0.13;0.13;;;14.10;99.90;;;;;;4915409;29;20060;-85
2022/08/23 03:26:03;;;;;;;0.10;0.10;;;14.10;99.90;;;;;;4898845;29;20044;-84
2022/08/23 03:28:30;;;;;;;0.10;0.10;;;14.10;99.90;;;;;;4878708;29;20101;-84
2022/08/23 03:30:55;;;;;;;;;;;14.00;99.90;;;;;;4905284;29;20111;-84
2022/08/23 03:33:22;;;;;;;0.28;0.20;;;14.00;99.90;;;;;;4897523;29;20010;-89
2022/08/23 03:35:48;;;;;;;;;;;14.00;99.90;;;;;;4891005;29;20154;-84
2022/08/23 03:38:14;;;;;;;0.32;0.20;;;13.90;99.90;;;;;;4913122;29;20381;-87
2022/08/23 03:40:41;;;;;;;0.10;0.10;;;13.90;99.90;;;;;;4893476;29;20051;-84
2022/08/23 03:43:06;;;;;;;0.13;0.10;;;13.90;99.90;;;;;;4914312;29;20043;-84
2022/08/23 03:45:32;;;;;;;0.10;0.10;;;14.70;99.90;;;;;;4890575;29;20048;-84
2022/08/23 03:47:58;;;;;;;0.30;0.30;;;13.80;99.90;;;;;;4913404;29;20131;-84
2022/08/23 03:50:24;;;;;;;0.17;0.10;;;13.80;99.90;;;;;;4895864;29;20331;-89
2022/08/23 03:52:50;;;;;;;0.10;0.10;;;13.80;99.90;;;;;;4909490;29;20048;-84
2022/08/23 03:55:15;;;;;;;0.30;0.30;;;13.70;99.90;;;;;;4910271;29;20047;-84
2022/08/23 03:57:41;;;;;;;0.43;0.20;;;13.80;99.90;;;;;;4888120;29;20052;-85
2022/08/23 04:00:10;;;;;;;0.70;0.10;;;13.80;99.90;;;;;;4893894;29;20297;-84
2022/08/23 04:02:36;;;;;;;0.30;0.10;;;13.70;99.90;;;;;;4897861;29;20052;-84
2022/08/23 04:05:03;;;;;;;0.10;0.10;;;13.70;99.90;;;;;;4906476;29;20070;-85
2022/08/23 04:07:29;;;;;;;0.20;0.20;;;13.70;99.90;;;;;;4896643;29;20127;-84
2022/08/23 04:09:55;;;;;;;0.20;0.20;;;13.70;99.90;;;;;;4912743;29;20132;-85
2022/08/23 04:12:23;;;;;;;0.40;0.20;;;13.60;99.90;;;;;;4889197;29;20135;-85
2022/08/23 04:14:52;;;;;;;0.15;0.15;;;13.60;99.90;;;;;;4895759;29;20479;-84
2022/08/23 04:17:20;;;;;;;0.40;0.20;;;13.60;99.90;;;;;;4904519;29;20058;-84
2022/08/23 04:19:47;;;;;;;0.28;0.20;;;13.60;99.90;;;;;;4911068;29;20131;-85
2022/08/23 04:22:13;;;;;;;;;;;13.60;99.90;;;;;;4909270;29;20040;-84
2022/08/23 04:24:40;;;;;;;0.65;0.10;;;13.60;99.90;;;;;;4878883;29;19948;-84
2022/08/23 04:27:07;;;;;;;0.47;0.13;;;13.70;99.90;;;;;;4921936;29;20052;-85
2022/08/23 04:29:33;;;;;;;1.25;0.30;;;13.60;99.90;;;;;;4906713;29;20537;-84
2022/08/23 04:31:59;;;;;;;0.60;0.20;;;13.60;99.90;;;;;;4896801;29;20059;-84
2022/08/23 04:34:27;;;;;;;0.30;0.20;;;13.60;99.90;;;;;;4914100;29;20056;-84
2022/08/23 04:36:53;;;;;;;0.90;0.22;;;13.30;99.90;;;;;;4891637;29;20064;-85
2022/08/23 04:39:19;;;;;;;0.07;0.07;;;13.50;99.90;;;;;;4897197;29;20048;-85
2022/08/23 04:44:29;;;;;;;0.25;0.20;;;13.50;99.90;;;;;;4908087;29;20296;-89
2022/08/23 04:46:55;;;;;;;0.73;0.43;;;13.50;99.90;;;;;;4894210;29;20091;-84
2022/08/23 04:49:22;;;;;;;0.10;0.10;;;13.50;99.90;;;;;;4910560;29;20296;-85
2022/08/23 04:51:49;;;;;;;0.10;0.10;;;13.50;99.90;;;;;;4912250;29;20051;-84
2022/08/23 04:54:14;;;;;;;0.25;0.25;;;13.50;99.90;;;;;;4905598;29;20160;-84
2022/08/23 04:56:40;;;;;;;0.23;0.23;;;13.50;99.90;;;;;;4909033;29;20102;-84
2022/08/23 04:59:14;;;;;;;0.20;0.20;;;13.50;99.90;;;;;;4887674;29;20127;-84
2022/08/23 05:01:42;;;;;;;0.17;0.17;;;13.50;99.90;;;;;;4929941;29;20051;-85
2022/08/23 05:04:08;;;;;;;0.20;0.20;;;13.60;99.90;;;;;;4905632;29;20048;-91
2022/08/23 05:06:34;;;;;;;1.07;0.40;;;13.60;99.90;;;;;;4905990;29;20513;-88
2022/08/23 05:09:00;;;;;;;0.35;0.35;;;13.60;99.90;;;;;;4904303;29;20805;-85
2022/08/23 05:11:27;;;;;;;0.82;0.30;;;13.70;99.90;;;;;;4909155;29;20048;-84
2022/08/23 05:13:56;;;;;;;0.47;0.22;;;13.80;99.90;;;;;;4893012;29;20062;-89
2022/08/23 05:16:22;;;;;;;0.30;0.30;;;13.80;99.90;;;;;;4907374;29;20048;-84
2022/08/23 05:18:47;;;;;;;1.13;0.50;;;13.90;99.90;;;;;;4904810;29;20047;-84
2022/08/23 05:21:22;;;;;;;1.23;0.50;;;14.00;99.90;;;;;;4904620;29;20044;-85
2022/08/23 05:23:48;;;;;;;0.50;0.40;;;14.00;99.90;;;;;;4908830;29;20560;-85
2022/08/23 05:26:14;;;;;;;0.97;0.73;;;14.10;99.90;;;;;;4906647;29;20127;-84
2022/08/23 05:28:43;;;;;;;0.50;0.50;;;14.10;99.90;;;;;;4887128;29;20048;-85
2022/08/23 05:31:16;;;;;;;1.02;0.50;;;14.30;99.90;;;;;;4902840;29;20095;-85
2022/08/23 05:33:43;;;;;;;0.38;0.30;;;14.30;99.90;;;;;;4909961;29;20122;-85
2022/08/23 05:36:10;;;;;;;0.93;0.40;;;14.40;99.90;;;;;;4896273;29;20068;-85
2022/08/23 05:38:37;;;;;;;0.82;0.70;;;14.50;99.90;;;;;;4895723;29;20104;-90
2022/08/23 05:41:03;;;;;;;;;;;14.60;99.90;;;;;;4897592;29;20036;-84
2022/08/23 05:43:29;;;;;;;0.55;0.50;;;14.60;99.90;;;;;;4907115;29;19930;-85
2022/08/23 05:46:20;;;;;;;0.68;0.30;;;14.70;99.90;;;;;;4911150;29;20044;-85
2022/08/23 05:48:50;;;;;;;1.05;0.50;;;14.90;99.90;;;;;;4903192;29;20112;-84
2022/08/23 05:51:21;;;;;;;0.75;0.50;;;15.00;99.90;;;;;;4894288;29;20052;-84
2022/08/23 05:53:48;;;;;;;0.98;0.50;;;15.20;99.90;;;;;;4897048;29;20052;-85
2022/08/23 05:56:33;;;;;;;0.40;0.30;;;15.30;99.90;;;;;;4891487;29;20491;-85
2022/08/23 05:59:05;;;;;;;0.93;0.45;;;15.60;99.90;;;;;;4887027;29;20657;-84
2022/08/23 06:01:32;;;;;;;0.55;0.55;;;15.80;99.90;;;;;;4891163;29;20066;-85
2022/08/23 06:04:02;;;;;;;0.70;0.70;;;16.00;99.90;;;;;;4894382;29;20076;-85
2022/08/23 06:06:30;;;;;;;1.75;0.85;;;16.30;99.90;;;;;;4906935;29;20487;-85
2022/08/23 06:08:56;;;;;;;0.60;0.57;;;16.50;99.90;;;;;;4895530;29;20578;-83
2022/08/23 06:11:26;;;;;;;1.05;0.70;;;16.70;99.90;;;;;;4901444;29;20563;-85
2022/08/23 06:14:00;;;;;;;1.35;0.70;;;16.90;99.90;;;;;;4899850;29;20040;-85
2022/08/23 06:16:32;;;;;;;1.10;0.68;;;17.10;99.90;;;;;;4899765;29;20050;-85
2022/08/23 06:19:01;;;;;;;0.63;0.63;;;17.30;99.90;;;;;;4903007;29;20388;-85
2022/08/23 06:21:28;;;;;;;1.25;0.70;;;17.50;99.90;;;;;;4901473;29;20066;-85
2022/08/23 06:23:54;;;;;;;0.73;0.63;;;17.60;99.90;;;;;;4900649;29;20044;-86
2022/08/23 06:26:32;;;;;;;1.25;0.73;;;17.80;99.90;;;;;;4917111;29;20040;-85
2022/08/23 06:29:01;;;;;;;0.95;0.60;;;17.90;99.90;;;;;;4885266;29;20056;-86
2022/08/23 06:31:48;;;;;;;0.70;0.50;;;18.00;99.90;;;;;;4883114;29;20056;-90
2022/08/23 06:34:26;;;;;;;1.15;1.05;;;18.30;99.90;;;;;;4914532;29;20056;-87
2022/08/23 06:37:06;;;;;;;0.93;0.60;;;18.40;99.90;;;;;;4879765;29;20066;-89
2022/08/23 06:39:32;;;;;;;0.90;0.60;;;18.60;99.90;;;;;;4884114;29;20048;-88
2022/08/23 06:42:05;;;;;;;;;;;17.90;99.90;;;;;;4899462;29;20059;-87
2022/08/23 06:44:32;;;;;;;0.80;0.70;;;19.00;99.90;;;;;;4885216;29;20361;-87
2022/08/23 06:47:10;;;;;;;1.10;0.50;;;19.10;99.90;;;;;;4905346;29;20048;-88
2022/08/23 06:49:36;;;;;;;1.13;0.75;;;19.30;99.90;;;;;;4884701;29;20383;-87
2022/08/23 06:52:06;;;;;;;0.40;0.40;;;19.40;99.90;;;;;;4899531;29;20050;-87
2022/08/23 06:54:39;;;;;;;1.80;0.80;;;19.50;99.90;;;;;;4881491;29;20052;-87
2022/08/23 06:57:05;;;;;;;1.02;0.75;;;19.50;99.90;;;;;;4911240;29;20483;-89
2022/08/23 06:59:33;;;;;;;1.00;0.60;;;19.70;99.90;;;;;;4884411;29;20549;-85
2022/08/23 07:02:02;;;;;;;1.75;0.68;;;19.20;99.90;;;;;;4868939;29;20499;-86
2022/08/23 07:04:32;;;;;;;0.93;0.60;;;20.70;99.90;;;;;;4884398;29;20079;-87
2022/08/23 07:06:58;;;;;;;0.57;0.40;;;20.00;99.90;;;;;;4883589;29;20048;-86
2022/08/23 07:09:27;;;;;;;0.70;0.70;;;20.20;99.90;;;;;;4900639;29;20380;-89
2022/08/23 07:11:53;;;;;;;1.13;0.75;;;20.20;99.90;;;;;;4885412;29;20054;-86
2022/08/23 07:14:20;;;;;;;0.93;0.55;;;20.30;99.90;;;;;;4902118;29;20040;-86
2022/08/23 07:16:49;;;;;;;0.60;0.60;;;20.40;99.90;;;;;;4891926;29;20134;-86
2022/08/23 07:19:17;;;;;;;0.73;0.70;;;20.50;99.90;;;;;;4904714;29;20051;-87
2022/08/23 07:21:44;;;;;;;0.63;0.60;;;20.60;99.90;;;;;;4887546;29;20127;-87
2022/08/23 07:24:12;;;;;;;1.27;0.40;;;20.80;99.90;;;;;;4904397;29;20059;-89
2022/08/23 07:26:38;;;;;;;0.50;0.40;;;20.70;99.90;;;;;;4889517;29;20138;-88
2022/08/23 07:29:05;;;;;;;0.73;0.73;;;20.80;99.90;;;;;;4902103;29;20533;-86
2022/08/23 07:31:33;;;;;;;0.73;0.57;;;20.90;99.90;;;;;;4897711;29;20040;-88
2022/08/23 07:34:03;;;;;;;0.30;0.30;;;21.00;99.90;;;;;;4882098;29;20055;-89
2022/08/23 07:36:31;;;;;;;0.68;0.63;;;21.20;99.90;;;;;;4897573;29;20560;-88
2022/08/23 07:39:00;;;;;;;0.50;0.50;;;21.30;99.90;;;;;;4896884;29;20092;-88
2022/08/23 07:41:29;;;;;;;0.40;0.40;;;21.40;99.90;;;;;;4892213;29;20048;-88
2022/08/23 07:44:02;;;;;;;0.93;0.70;;;21.60;99.90;;;;;;4885969;29;20509;-91
2022/08/23 07:46:32;;;;;;;0.50;0.50;;;21.80;99.90;;;;;;4882435;29;20052;-87
2022/08/23 07:49:02;;;;;;;0.40;0.40;;;21.90;99.90;;;;;;4898945;29;20103;-87
2022/08/23 07:51:30;;;;;;;0.75;0.75;;;22.00;99.90;;;;;;4883728;29;20051;-89
2022/08/23 07:53:56;;;;;;;0.38;0.38;;;22.10;99.90;;;;;;4896953;29;20060;-86
2022/08/23 07:56:24;;;;;;;0.60;0.60;;;22.20;99.90;;;;;;4889157;29;20127;-85
2022/08/23 07:58:50;;;;;;;0.57;0.57;;;22.30;99.90;;;;;;4886126;29;20048;-85
2022/08/23 08:01:22;;;;;;;0.50;0.50;;;22.40;99.90;;;;;;4887675;29;20190;-88
2022/08/23 08:03:53;;;;;;;0.75;0.50;;;22.70;99.90;;;;;;4913108;29;20040;-91
2022/08/23 08:06:27;;;;;;;0.43;0.43;;;22.80;99.90;;;;;;4912500;29;20039;-92
2022/08/23 08:08:56;;;;;;;0.40;0.40;;;22.90;99.90;;;;;;4888709;29;20135;-93
2022/08/23 08:11:30;;;;;;;0.50;0.50;;;23.00;99.90;;;;;;4904927;29;20040;-90
2022/08/23 08:13:56;;;;;;;0.50;0.47;;;23.00;99.90;;;;;;4906711;29;20220;-93
2022/08/23 08:16:27;;;;;;;0.40;0.40;;;23.10;99.90;;;;;;4881383;29;20054;-94
2022/08/23 08:19:18;;;;;;;1.52;0.80;;;23.10;99.90;;;;;;4895540;29;20062;-92
2022/08/23 08:22:00;;;;;;;0.45;0.45;;;22.90;99.90;;;;;;4887634;29;20087;-91
2022/08/23 08:24:49;;;;;;;0.50;0.50;;;23.40;99.90;;;;;;4917629;29;20119;-90
2022/08/23 08:27:15;;;;;;;0.70;0.70;;;23.40;99.90;;;;;;4879692;29;20229;-90
2022/08/23 08:29:45;;;;;;;0.55;0.55;;;23.50;99.90;;;;;;4893413;29;20111;-90
2022/08/23 08:32:31;;;;;;;0.50;0.50;;;24.50;99.90;;;;;;4887112;29;20131;-90
2022/08/23 08:35:06;;;;;;;0.52;0.52;;;23.70;99.90;;;;;;4888844;29;20062;-89
2022/08/23 08:37:35;;;;;;;0.40;0.40;;;23.80;99.90;;;;;;4902625;29;20048;-89
2022/08/23 08:40:15;;;;;;;;;;;;;;;;;;;;;
2022/08/23 08:43:01;;;;;;;0.50;0.50;;;23.60;99.90;;;;;;4916928;29;20054;-90
2022/08/23 08:46:06;;;;;;;0.60;0.60;;;23.50;99.90;;;;;;4917068;29;20083;-90
2022/08/23 08:48:50;;;;;;;0.43;0.43;;;23.60;99.90;;;;;;4875359;29;20152;-90
2022/08/23 08:51:46;;;;;;;0.57;0.57;;;23.80;99.90;;;;;;4899249;29;20087;-90
2022/08/23 08:54:21;;;;;;;0.50;0.43;;;23.90;99.90;;;;;;4893256;29;20052;-90
2022/08/23 08:57:00;;;;;;;0.50;0.50;;;24.10;99.90;;;;;;4902895;29;20418;-89
2022/08/23 09:00:17;;;;;;;0.50;0.50;;;23.50;99.90;;;;;;4902299;29;20143;-90
2022/08/23 09:02:57;;;;;;;0.47;0.47;;;24.10;99.90;;;;;;4834579;29;20501;-90
2022/08/23 09:05:40;;;;;;;0.40;0.40;;;24.20;99.90;;;;;;4862188;29;20049;-90
2022/08/23 09:08:21;;;;;;;0.20;0.20;;;24.40;99.90;;;;;;4878866;29;20057;-91
2022/08/23 09:10:51;;;;;;;0.30;0.30;;;24.40;99.90;;;;;;4893030;29;20133;-90
2022/08/23 09:13:52;;;;;;;0.50;0.50;;;24.40;99.90;;;;;;4927128;29;20052;-90
2022/08/23 09:16:26;;;;;;;0.40;0.40;;;24.40;99.90;;;;;;4887578;29;20069;-90
2022/08/23 09:19:19;;;;;;;0.60;0.52;;;24.30;99.90;;;;;;4902202;29;20044;-90
2022/08/23 09:22:01;;;;;;;0.50;0.50;;;24.30;99.90;;;;;;4920119;29;20135;-91
2022/08/23 09:24:29;;;;;;;0.47;0.47;;;24.30;99.90;;;;;;4904327;29;20106;-90
2022/08/23 09:27:01;;;;;;;0.50;0.50;;;24.30;99.90;;;;;;4917247;29;20058;-89
2022/08/23 09:29:34;;;;;;;0.40;0.40;;;24.50;99.90;;;;;;4904655;29;20077;-89
2022/08/23 09:32:22;;;;;;;0.50;0.50;;;24.30;99.90;;;;;;4900058;29;20043;-90
2022/08/23 09:34:50;;;;;;;;;;;24.30;99.90;;;;;;4915895;29;20451;-91
2022/08/23 09:37:22;;;;;;;0.73;0.57;;;24.50;99.90;;;;;;4914570;29;19923;-93
2022/08/23 09:40:13;;;;;;;0.47;0.47;;;24.70;99.90;;;;;;4905201;29;20087;-89
2022/08/23 09:42:40;;;;;;;0.38;0.38;;;24.70;99.90;;;;;;4884333;29;20048;-90
2022/08/23 09:45:24;;;;;;;0.40;0.40;;;24.80;99.90;;;;;;4911544;29;20515;-88
2022/08/23 09:47:50;;;;;;;0.68;0.68;;;25.00;99.90;;;;;;4911179;29;20057;-86
2022/08/23 09:50:22;;;;;;;0.30;0.30;;;25.00;99.90;;;;;;4909062;29;20490;-87
2022/08/23 09:52:53;;;;;;;0.40;0.40;;;25.10;99.90;;;;;;4886475;29;20111;-88
2022/08/23 09:55:33;;;;;;;0.30;0.30;;;25.20;99.90;;;;;;4901407;29;20063;-87
2022/08/23 09:58:10;;;;;;;0.30;0.30;;;25.20;99.90;;;;;;4909354;29;20051;-87
2022/08/23 10:00:40;;;;;;;0.55;0.55;;;25.20;99.90;;;;;;4904211;29;20040;-84
2022/08/23 10:03:28;;;;;;;0.57;0.57;;;25.30;99.90;;;;;;4894407;29;20063;-91
2022/08/23 10:05:59;;;;;;;1.10;0.50;;;25.10;99.90;;;;;;4905965;29;20079;-90
2022/08/23 10:08:39;;;;;;;0.40;0.40;;;25.40;99.90;;;;;;4885139;29;20100;-90
2022/08/23 10:11:30;;;;;;;0.50;0.50;;;24.90;99.90;;;;;;4881610;29;20131;-91
2022/08/23 10:17:02;;;;;;;0.32;0.30;;;25.60;99.90;;;;;;4906748;29;20052;-90
2022/08/23 10:19:37;;;;;;;0.40;0.40;;;25.70;99.90;;;;;;4915822;29;20136;-91
2022/08/23 10:23:02;;;;;;;;;;;;;;;;;;;;;
2022/08/23 10:25:51;;;;;;;0.65;0.45;;;25.90;99.90;;;;;;4919427;23;20070;-91
2022/08/23 10:31:46;;;;;;;0.45;0.40;;;26.10;99.90;;;;;;4947781;28;20156;-91
2022/08/23 10:34:53;;;;;;;0.17;0.17;;;26.30;99.90;;;;;;4919908;29;20054;-92
2022/08/23 10:37:44;;;;;;;0.30;0.30;;;26.30;97.50;;;;;;4920497;29;20134;-92
2022/08/23 10:40:27;;;;;;;0.30;0.30;;;26.00;99.00;;;;;;4922982;29;20052;-96
2022/08/23 10:43:24;;;;;;;0.30;0.30;;;26.50;99.90;;;;;;4921999;29;20066;-94
2022/08/23 10:46:07;;;;;;;0.20;0.20;;;26.50;99.90;;;;;;4939057;29;20047;-94
2022/08/23 10:48:50;;;;;;;0.55;0.30;;;26.50;99.90;;;;;;4920936;29;20044;-93
2022/08/23 10:51:33;;;;;;;0.20;0.20;;;26.60;99.20;;;;;;4923798;29;20095;-92
2022/08/23 10:54:07;;;;;;;0.30;0.30;;;26.30;97.80;;;;;;4922282;29;20054;-92
2022/08/23 10:56:42;;;;;;;0.45;0.45;;;26.70;98.60;;;;;;4932420;29;20055;-92
2022/08/23 11:02:37;;;;;;;0.75;0.40;;;26.80;97.80;;;;;;4946929;29;20083;-91
2022/08/23 11:05:44;;;;;;;1.48;0.32;;;26.80;95.50;;;;;;4933634;29;20051;-85
2022/08/23 11:08:35;;;;;;;0.50;0.40;;;27.00;98.00;;;;;;4920147;29;20063;-95
2022/08/23 11:11:03;;;;;;;0.50;0.40;;;27.20;94.80;;;;;;4931709;29;20051;-91
2022/08/23 11:17:05;;;;;;;0.45;0.45;;;27.30;95.30;;;;;;4955519;29;20054;-91
2022/08/23 11:20:13;;;;;;;0.38;0.38;;;27.50;96.40;;;;;;4938929;29;20047;-95
2022/08/23 11:23:06;;;;;;;0.47;0.47;;;26.90;94.20;;;;;;4926831;29;20453;-94
2022/08/23 11:25:41;;;;;;;0.15;0.15;;;28.00;93.80;;;;;;4918037;29;20066;-94
2022/08/23 11:28:22;;;;;;;0.20;0.20;;;27.90;95.10;;;;;;4919805;29;20525;-94
2022/08/23 11:30:58;;;;;;;0.20;0.20;;;27.40;92.60;;;;;;4919166;29;20054;-94
2022/08/23 11:33:38;;;;;;;0.98;0.30;;;28.10;94.70;;;;;;4919736;29;20098;-94
2022/08/23 11:36:22;;;;;;;;;;;;;;;;;;;;;
2022/08/23 11:38:58;;;;;;;0.35;0.35;;;28.20;92.80;;;;;;4934745;29;20074;-94
2022/08/23 11:49:18;;;;;;;0.15;0.15;;;28.40;88.80;;;;;;4936265;29;20078;-91
2022/08/23 11:52:19;;;;;;;0.20;0.20;;;28.50;89.50;;;;;;4933258;23;20060;-87
2022/08/23 11:55:20;;;;;;;0.40;0.40;;;28.60;85.70;;;;;;4904723;29;20056;-89
2022/08/23 11:58:22;;;;;;;0.45;0.20;;;28.60;82.80;;;;;;4913247;29;20072;-89
2022/08/23 12:00:56;;;;;;;0.28;0.28;;;28.60;79.60;;;;;;4892842;29;20099;-88
2022/08/23 12:03:52;;;;;;;0.20;0.20;;;28.70;85.60;;;;;;4925514;29;20039;-88
2022/08/23 12:06:18;;;;;;;0.32;0.30;;;28.70;83.60;;;;;;4906165;29;20052;-89
2022/08/23 12:08:48;;;;;;;0.35;0.30;;;28.80;90.90;;;;;;4911599;29;20047;-90
2022/08/23 12:11:20;;;;;;;0.40;0.40;;;28.90;88.20;;;;;;4921076;29;20055;-92
2022/08/23 12:13:50;;;;;;;0.10;0.10;;;28.70;89.00;;;;;;4907088;29;20052;-90
2022/08/23 12:16:22;;;;;;;1.40;0.43;;;29.00;89.60;;;;;;4905819;29;20075;-93
2022/08/23 12:18:51;;;;;;;0.30;0.20;;;29.00;85.70;;;;;;4931769;29;20051;-90
2022/08/23 12:21:40;;;;;;;;;;;;;;;;;;;;;
2022/08/23 12:24:52;;;;;;;0.10;0.10;;;28.30;84.70;;;;;;4899029;29;20052;-92
2022/08/23 12:27:56;;;;;;;0.10;0.10;;;29.20;79.70;;;;;;4884933;29;20447;-88
2022/08/23 12:30:29;;;;;;;0.20;0.20;;;29.20;79.10;;;;;;4889408;29;20566;-87
2022/08/23 12:33:14;;;;;;;0.17;0.17;;;29.20;85.20;;;;;;4886656;29;20043;-86
2022/08/23 12:36:20;;;;;;;0.20;0.20;;;29.30;77.90;;;;;;4892472;29;20192;-88
2022/08/23 12:39:06;;;;;;;0.40;0.30;;;29.40;76.60;;;;;;4900265;29;20048;-87
2022/08/23 12:41:51;;;;;;;0.10;0.10;;;29.40;77.50;;;;;;4934259;29;20055;-87
2022/08/23 12:44:25;;;;;;;0.20;0.20;;;29.50;74.90;;;;;;4932770;29;20047;-89
2022/08/23 12:46:52;;;;;;;0.40;0.30;;;29.40;79.90;;;;;;4899961;29;20056;-88
2022/08/23 12:49:42;;;;;;;0.20;0.20;;;29.30;83.00;;;;;;4918456;29;20062;-90
2022/08/23 12:52:21;;;;;;;;;;;;;;;;;;;;;
2022/08/23 12:55:00;;;;;;;1.23;0.20;;;28.50;79.60;;;;;;4911946;29;20108;-89
2022/08/23 12:58:01;;;;;;;0.35;0.30;;;29.10;80.40;;;;;;4899229;29;20127;-90
2022/08/23 13:00:38;;;;;;;0.35;0.35;;;29.10;77.90;;;;;;4883063;29;20056;-91
2022/08/23 13:03:04;;;;;;;0.30;0.30;;;29.10;79.60;;;;;;4904796;29;20040;-90
2022/08/23 13:05:55;;;;;;;0.65;0.20;;;29.10;82.40;;;;;;4920888;29;20087;-88
2022/08/23 13:08:42;;;;;;;0.28;0.20;;;28.80;75.70;;;;;;4898818;29;20498;-87
2022/08/23 13:11:12;;;;;;;0.13;0.13;;;29.50;76.10;;;;;;4915454;29;20071;-88
2022/08/23 13:13:42;;;;;;;0.30;0.30;;;29.50;78.40;;;;;;4897060;29;20059;-91
2022/08/23 13:16:28;;;;;;;0.17;0.17;;;29.60;76.70;;;;;;4902455;29;20056;-87
2022/08/23 13:19:08;;;;;;;0.43;0.43;;;29.50;74.30;;;;;;4902121;29;20392;-87
2022/08/23 13:21:37;;;;;;;0.30;0.30;;;29.40;79.00;;;;;;4917065;29;20062;-87
2022/08/23 13:24:35;;;;;;;0.32;0.22;;;29.30;79.50;;;;;;4886413;29;20128;-88
2022/08/23 13:30:58;;;;;;;0.17;0.17;;;29.00;76.10;;;;;;4918922;29;20423;-87
2022/08/23 13:33:37;;;;;;;0.38;0.38;;;29.00;75.50;;;;;;4902365;29;20054;-88
2022/08/23 13:36:30;;;;;;;0.20;0.20;;;28.90;74.50;;;;;;4901565;29;20059;-87
2022/08/23 13:39:10;;;;;;;0.52;0.30;;;29.30;78.20;;;;;;4918701;29;20387;-88
2022/08/23 13:41:38;;;;;;;0.25;0.25;;;29.30;75.60;;;;;;4902856;29;20045;-88
2022/08/23 13:44:17;;;;;;;0.52;0.52;;;29.20;77.40;;;;;;4931320;29;20509;-88
2022/08/23 13:47:30;;;;;;;0.20;0.20;;;29.10;75.70;;;;;;4879315;29;20456;-88
2022/08/23 13:50:00;;;;;;;0.20;0.20;;;29.00;75.10;;;;;;4870646;29;20091;-88
2022/08/23 13:52:26;;;;;;;0.40;0.22;;;28.90;74.10;;;;;;4897781;29;20057;-88
2022/08/23 13:54:54;;;;;;;0.17;0.17;;;28.90;77.70;;;;;;4898440;29;20116;-88
2022/08/23 13:57:25;;;;;;;0.20;0.20;;;28.80;76.30;;;;;;4882614;29;20108;-87
2022/08/23 14:03:33;;;;;;;0.20;0.20;;;28.70;74.60;;;;;;4891554;29;20149;-88
2022/08/23 14:09:49;;;;;;;0.52;0.30;;;28.80;74.90;;;;;;4880611;29;20081;-88